.
WxDataArchive / Data Records for 2009-11-18
2009-11-17 November 2009 2009-11-19

Data Records for Wednesday, 18 November 2009

Time	Temp	Chill	HIndex	Humid	Dewpt	 Wind 	HiWind	WindDir	Rain 	Barom 
-----	----	-----	------	-----	-----	------	------	-------	-----	----- 
00:00	45.5	45.5	45.5	85	41.3	2	7	90	0.00	30.058 
00:05	45.7	45.7	45.7	84	41.1	1	5	90	0.00	30.058 
00:10	45.7	45.7	45.7	84	41.1	1	6	90	0.00	30.058 
00:15	45.8	45.8	45.8	84	41.2	1	6	90	0.00	30.059 
00:20	46.0	46.0	46.0	84	41.4	2	7	90	0.00	30.059 
00:25	46.1	46.1	46.1	84	41.5	2	6	90	0.00	30.059 
00:30	46.2	46.2	46.2	83	41.3	2	9	112	0.00	30.058 
00:35	46.2	46.2	46.2	83	41.3	3	7	90	0.00	30.058 
00:40	46.4	46.4	46.4	82	41.2	3	10	90	0.00	30.058 
00:45	46.4	46.4	46.4	82	41.2	2	6	90	0.00	30.055 
00:50	46.4	44.7	46.4	82	41.2	4	10	90	0.00	30.055 
00:55	46.4	46.4	46.4	82	41.2	2	10	90	0.00	30.055 
01:00	46.4	46.4	46.4	82	41.2	3	10	112	0.00	30.054 
01:05	46.4	46.4	46.4	81	40.9	2	8	90	0.00	30.054 
01:10	46.4	46.4	46.4	81	40.9	3	9	90	0.00	30.054 
01:15	46.4	46.4	46.4	81	40.9	2	9	90	0.00	30.043 
01:20	46.4	46.4	46.4	81	40.9	3	12	112	0.00	30.043 
01:25	46.5	46.5	46.5	81	41.0	3	12	112	0.00	30.043 
01:30	46.5	46.5	46.5	81	41.0	3	6	112	0.00	30.043 
01:35	46.5	46.5	46.5	80	40.7	3	8	112	0.00	30.043 
01:40	46.5	46.5	46.5	80	40.7	3	7	90	0.00	30.043 
01:45	46.5	46.5	46.5	80	40.7	3	9	112	0.00	30.043 
01:50	46.5	46.5	46.5	80	40.7	2	7	90	0.00	30.043 
01:55	46.5	46.5	46.5	80	40.7	3	7	112	0.00	30.043 
02:00	46.5	46.5	46.5	80	40.7	2	6	112	0.00	30.041 
02:05	46.5	46.5	46.5	80	40.7	3	11	90	0.00	30.041 
02:10	46.5	46.5	46.5	80	40.7	3	8	112	0.00	30.041 
02:15	46.5	46.5	46.5	80	40.7	3	9	90	0.00	30.043 
02:20	46.4	46.4	46.4	80	40.6	2	9	68	0.00	30.043 
02:25	46.2	46.2	46.2	80	40.4	3	11	112	0.00	30.043 
02:30	46.2	44.5	46.2	79	40.1	4	7	112	0.00	30.049 
02:35	46.2	46.2	46.2	79	40.1	3	9	112	0.00	30.049 
02:40	46.4	46.4	46.4	79	40.2	3	10	90	0.00	30.049 
02:45	46.4	46.4	46.4	79	40.2	2	4	135	0.00	30.051 
02:50	46.4	46.4	46.4	79	40.2	2	5	90	0.00	30.051 
02:55	46.4	46.4	46.4	79	40.2	2	4	90	0.00	30.051 
03:00	46.4	46.4	46.4	79	40.2	2	5	112	0.00	30.051 
03:05	46.4	46.4	46.4	78	39.9	2	5	112	0.00	30.051 
03:10	46.2	46.2	46.2	78	39.7	3	6	112	0.00	30.051 
03:15	46.2	46.2	46.2	78	39.7	2	6	112	0.00	30.047 
03:20	46.2	46.2	46.2	78	39.7	3	7	112	0.00	30.047 
03:25	46.2	46.2	46.2	78	39.7	2	6	112	0.00	30.047 
03:30	46.2	46.2	46.2	78	39.7	2	6	68	0.00	30.044 
03:35	46.1	46.1	46.1	78	39.6	1	4	90	0.00	30.044 
03:40	46.1	46.1	46.1	78	39.6	2	6	112	0.00	30.044 
03:45	46.1	46.1	46.1	78	39.6	2	5	112	0.00	30.042 
03:50	46.1	46.1	46.1	78	39.6	2	5	68	0.00	30.042 
03:55	46.1	46.1	46.1	78	39.6	1	4	112	0.00	30.042 
04:00	46.0	46.0	46.0	78	39.5	1	5	112	0.00	30.041 
04:05	46.1	46.1	46.1	78	39.6	3	7	112	0.00	30.041 
04:10	46.1	46.1	46.1	78	39.6	3	8	112	0.00	30.041 
04:15	46.0	46.0	46.0	78	39.5	2	7	90	0.00	30.043 
04:20	46.0	46.0	46.0	78	39.5	3	7	112	0.00	30.043 
04:25	45.8	45.8	45.8	78	39.3	2	6	112	0.00	30.043 
04:30	45.7	45.7	45.7	79	39.6	2	7	90	0.00	30.049 
04:35	45.7	45.7	45.7	79	39.6	2	5	112	0.00	30.049 
04:40	45.5	45.5	45.5	79	39.4	2	5	135	0.00	30.049 
04:45	45.5	45.5	45.5	79	39.4	2	6	90	0.00	30.046 
04:50	45.5	45.5	45.5	79	39.4	2	7	112	0.00	30.046 
04:55	45.5	45.5	45.5	79	39.4	3	5	90	0.00	30.046 
05:00	45.5	45.5	45.5	79	39.4	2	5	112	0.00	30.056 
05:05	45.5	45.5	45.5	79	39.4	3	7	90	0.00	30.056 
05:10	45.5	45.5	45.5	79	39.4	2	6	90	0.00	30.056 
05:15	45.5	45.5	45.5	79	39.4	2	6	90	0.00	30.054 
05:20	45.5	45.5	45.5	79	39.4	2	6	90	0.00	30.054 
05:25	45.5	45.5	45.5	79	39.4	2	6	90	0.00	30.054 
05:30	45.5	45.5	45.5	79	39.4	2	5	90	0.00	30.058 
05:35	45.5	45.5	45.5	79	39.4	2	6	112	0.00	30.058 
05:40	45.7	45.7	45.7	79	39.6	2	6	112	0.00	30.058 
05:45	45.7	45.7	45.7	79	39.6	2	5	112	0.00	30.059 
05:50	45.8	45.8	45.8	79	39.7	2	7	90	0.00	30.059 
05:55	45.8	45.8	45.8	79	39.7	2	5	112	0.00	30.059 
06:00	46.0	46.0	46.0	79	39.9	3	7	112	0.00	30.058 
06:05	46.0	46.0	46.0	79	39.9	2	6	112	0.00	30.058 
06:10	46.0	46.0	46.0	79	39.9	2	6	90	0.00	30.058 
06:15	45.8	45.8	45.8	80	40.0	2	6	90	0.00	30.056 
06:20	45.8	45.8	45.8	80	40.0	2	6	90	0.00	30.056 
06:25	46.0	46.0	46.0	80	40.2	2	5	112	0.00	30.056 
06:30	46.0	46.0	46.0	80	40.2	2	5	90	0.00	30.067 
06:35	46.1	46.1	46.1	80	40.3	2	5	90	0.00	30.067 
06:40	46.1	46.1	46.1	80	40.3	2	5	112	0.00	30.067 
06:45	46.1	46.1	46.1	80	40.3	2	4	112	0.00	30.076 
06:50	46.2	46.2	46.2	80	40.4	1	3	112	0.00	30.076 
06:55	46.2	46.2	46.2	80	40.4	1	4	90	0.00	30.076 
07:00	46.4	46.4	46.4	80	40.6	2	6	90	0.00	30.077 
07:05	46.4	46.4	46.4	81	40.9	1	4	90	0.00	30.077 
07:10	46.5	46.5	46.5	81	41.0	2	6	112	0.00	30.077 
07:15	46.7	46.7	46.7	81	41.2	2	7	112	0.00	30.075 
07:20	46.8	46.8	46.8	80	41.0	3	6	112	0.00	30.075 
07:25	47.0	47.0	47.0	80	41.2	3	7	90	0.00	30.075 
07:30	47.0	45.4	47.0	80	41.2	4	8	112	0.00	30.075 
07:35	47.1	47.1	47.1	80	41.3	3	7	112	0.00	30.075 
07:40	47.1	47.1	47.1	80	41.3	3	9	90	0.00	30.075 
07:45	47.1	47.1	47.1	80	41.3	2	4	112	0.00	30.077 
07:50	47.1	47.1	47.1	80	41.3	2	5	112	0.00	30.077 
07:55	47.1	47.1	47.1	80	41.3	3	6	90	0.00	30.077 
08:00	47.1	47.1	47.1	81	41.6	2	6	90	0.00	30.077 
08:05	47.0	47.0	47.0	82	41.8	2	5	90	0.00	30.077 
08:10	47.0	47.0	47.0	83	42.1	3	6	90	0.00	30.077 
08:15	46.8	46.8	46.8	84	42.2	3	7	90	0.00	30.084 
08:20	46.8	46.8	46.8	84	42.2	3	7	112	0.00	30.084 
08:25	46.7	46.7	46.7	85	42.4	3	9	112	0.00	30.084 
08:30	46.5	46.5	46.5	85	42.2	3	7	90	0.00	30.092 
08:35	46.4	46.4	46.4	85	42.1	3	7	90	0.00	30.092 
08:40	46.4	46.4	46.4	85	42.1	3	7	90	0.00	30.092 
08:45	46.2	46.2	46.2	86	42.2	2	7	90	0.00	30.094 
08:50	46.2	46.2	46.2	87	42.5	3	7	112	0.01	30.094 
08:55	46.1	46.1	46.1	88	42.7	2	6	90	0.00	30.094 
09:00	46.0	46.0	46.0	89	42.9	3	9	90	0.00	30.096 
09:05	45.8	45.8	45.8	90	43.0	1	4	112	0.00	30.096 
09:10	45.7	45.7	45.7	90	42.9	2	6	90	0.00	30.096 
09:15	45.5	45.5	45.5	91	43.0	1	4	135	0.00	30.106 
09:20	45.4	45.4	45.4	91	42.9	1	3	112	0.00	30.106 
09:25	45.2	45.2	45.2	92	43.0	1	4	90	0.00	30.106 
09:30	45.1	45.1	45.1	92	42.9	2	4	90	0.00	30.107 
09:35	45.1	45.1	45.1	92	42.9	2	6	90	0.00	30.107 
09:40	45.1	45.1	45.1	93	43.2	2	5	112	0.00	30.107 
09:45	45.1	45.1	45.1	93	43.2	2	5	90	0.00	30.108 
09:50	45.1	45.1	45.1	93	43.2	2	5	90	0.00	30.108 
09:55	45.2	45.2	45.2	93	43.3	1	4	112	0.00	30.108 
10:00	45.2	45.2	45.2	94	43.6	2	6	90	0.00	30.108 
10:05	45.4	45.4	45.4	94	43.8	2	4	90	0.00	30.108 
10:10	45.5	45.5	45.5	94	43.9	2	6	90	0.00	30.108 
10:15	45.7	45.7	45.7	94	44.1	1	4	68	0.00	30.107 
10:20	46.0	46.0	46.0	95	44.6	1	5	135	0.00	30.107 
10:25	46.0	46.0	46.0	94	44.4	2	5	90	0.00	30.107 
10:30	46.0	46.0	46.0	94	44.4	2	3	90	0.00	30.109 
10:35	46.0	46.0	46.0	94	44.4	1	5	112	0.00	30.109 
10:40	46.0	46.0	46.0	94	44.4	2	5	90	0.00	30.109 
10:45	45.8	45.8	45.8	94	44.2	2	6	112	0.00	30.114 
10:50	45.8	45.8	45.8	94	44.2	1	4	112	0.00	30.114 
10:55	45.8	45.8	45.8	95	44.4	1	5	112	0.00	30.114 
11:00	46.0	46.0	46.0	95	44.6	1	5	90	0.00	30.105 
11:05	46.1	46.1	46.1	95	44.7	0	3	90	0.00	30.105 
11:10	46.4	46.4	46.4	95	45.0	0	2	90	0.00	30.105 
11:15	46.5	46.5	46.5	95	45.1	0	3	90	0.00	30.093 
11:20	47.0	47.0	47.0	95	45.6	0	2	90	0.00	30.093 
11:25	47.3	47.3	47.3	95	45.9	1	5	112	0.00	30.093 
11:30	48.0	48.0	48.0	96	46.9	0	3	112	0.00	30.088 
11:35	48.5	48.5	48.5	95	47.1	2	7	112	0.00	30.088 
11:40	48.6	48.6	48.6	96	47.5	2	5	90	0.00	30.088 
11:45	48.8	48.8	48.8	95	47.4	2	7	90	0.00	30.101 
11:50	48.8	48.8	48.8	95	47.4	2	6	112	0.00	30.101 
11:55	48.6	48.6	48.6	95	47.2	3	6	112	0.00	30.101 
12:00	48.6	48.6	48.6	95	47.2	3	5	90	0.00	30.090 
12:05	48.6	48.6	48.6	95	47.2	1	4	68	0.00	30.090 
12:10	48.6	48.6	48.6	95	47.2	2	4	90	0.00	30.090 
12:15	48.6	48.6	48.6	95	47.2	2	6	90	0.00	30.085 
12:20	48.5	48.5	48.5	95	47.1	3	6	90	0.00	30.085 
12:25	48.3	48.3	48.3	95	46.9	3	5	90	0.00	30.085 
12:30	48.3	48.3	48.3	95	46.9	3	6	90	0.00	30.093 
12:35	48.3	48.3	48.3	95	46.9	1	4	90	0.00	30.093 
12:40	48.5	48.5	48.5	95	47.1	1	4	90	0.00	30.093 
12:45	48.5	48.5	48.5	95	47.1	2	4	90	0.00	30.089 
12:50	48.6	48.6	48.6	95	47.2	2	4	90	0.00	30.089 
12:55	48.9	48.9	48.9	95	47.5	2	6	90	0.00	30.089 
13:00	49.1	49.1	49.1	95	47.7	2	4	112	0.00	30.072 
13:05	49.2	49.2	49.2	95	47.8	2	6	112	0.00	30.072 
13:10	49.4	49.4	49.4	95	48.0	3	6	112	0.00	30.072 
13:15	49.4	49.4	49.4	95	48.0	2	7	90	0.00	30.076 
13:20	49.4	49.4	49.4	95	48.0	1	4	90	0.00	30.076 
13:25	49.5	49.5	49.5	95	48.1	1	4	90	0.00	30.076 
13:30	49.5	49.5	49.5	95	48.1	2	4	112	0.00	30.070 
13:35	49.5	49.5	49.5	95	48.1	2	4	90	0.00	30.070 
13:40	49.6	49.6	49.6	95	48.2	1	4	112	0.00	30.070 
13:45	49.8	49.8	49.8	96	48.7	1	4	112	0.00	30.072 
13:50	50.1	50.1	50.1	96	49.0	1	3	112	0.00	30.072 
13:55	50.2	50.2	50.2	96	49.1	1	4	112	0.00	30.072 
14:00	50.4	50.4	50.4	96	49.3	1	3	112	0.00	30.077 
14:05	50.5	50.5	50.5	96	49.4	2	4	112	0.00	30.077 
14:10	50.7	50.7	50.7	96	49.6	1	3	90	0.00	30.077 
14:15	50.8	50.8	50.8	96	49.7	3	7	90	0.00	30.073 
14:20	50.8	50.8	50.8	95	49.4	2	6	90	0.00	30.073 
14:25	50.8	50.8	50.8	96	49.7	2	4	90	0.00	30.073 
14:30	50.8	50.8	50.8	95	49.4	2	5	90	0.00	30.074 
14:35	50.8	50.8	50.8	95	49.4	2	5	90	0.00	30.074 
14:40	50.8	50.8	50.8	95	49.4	2	6	112	0.00	30.074 
14:45	50.7	50.7	50.7	95	49.3	1	4	90	0.00	30.071 
14:50	50.7	50.7	50.7	95	49.3	1	4	90	0.00	30.071 
14:55	51.0	51.0	51.0	95	49.6	1	5	90	0.00	30.071 
15:00	51.1	51.1	51.1	95	49.7	1	3	90	0.00	30.069 
15:05	51.1	51.1	51.1	95	49.7	0	2	90	0.00	30.069 
15:10	51.3	51.3	51.3	95	49.9	0	2	90	0.00	30.069 
15:15	51.3	51.3	51.3	95	49.9	0	3	90	0.00	30.069 
15:20	51.4	51.4	51.4	95	50.0	1	2	90	0.00	30.069 
15:25	51.4	51.4	51.4	95	50.0	1	3	90	0.00	30.069 
15:30	51.4	51.4	51.4	95	50.0	1	3	90	0.00	30.069 
15:35	51.4	51.4	51.4	94	49.7	1	2	90	0.00	30.069 
15:40	51.3	51.3	51.3	95	49.9	1	4	135	0.00	30.069 
15:45	51.3	51.3	51.3	95	49.9	2	4	112	0.00	30.068 
15:50	51.4	51.4	51.4	95	50.0	1	3	112	0.00	30.068 
15:55	51.4	51.4	51.4	94	49.7	2	5	90	0.00	30.068 
16:00	51.4	51.4	51.4	94	49.7	2	6	90	0.00	30.070 
16:05	51.6	51.6	51.6	94	49.9	1	3	90	0.00	30.070 
16:10	51.6	51.6	51.6	94	49.9	2	4	112	0.00	30.070 
16:15	51.4	51.4	51.4	94	49.7	2	4	112	0.00	30.068 
16:20	51.4	51.4	51.4	94	49.7	2	6	90	0.00	30.068 
16:25	51.4	51.4	51.4	93	49.4	2	7	112	0.00	30.068 
16:30	51.4	51.4	51.4	93	49.4	2	4	112	0.00	30.068 
16:35	51.6	51.6	51.6	93	49.6	1	3	112	0.00	30.068 
16:40	51.6	51.6	51.6	93	49.6	2	5	112	0.00	30.068 
16:45	51.6	51.6	51.6	93	49.6	1	6	112	0.00	30.070 
16:50	51.6	51.6	51.6	93	49.6	2	5	112	0.00	30.070 
16:55	51.6	51.6	51.6	93	49.6	2	7	112	0.00	30.070 
17:00	51.4	51.4	51.4	93	49.4	2	4	112	0.00	30.070 
17:05	51.4	51.4	51.4	92	49.2	2	4	112	0.00	30.070 
17:10	51.4	51.4	51.4	92	49.2	1	4	112	0.00	30.070 
17:15	51.6	51.6	51.6	92	49.4	2	5	112	0.00	30.057 
17:20	51.6	51.6	51.6	92	49.4	1	3	68	0.00	30.057 
17:25	51.6	51.6	51.6	92	49.4	1	3	90	0.00	30.057 
17:30	51.6	51.6	51.6	92	49.4	1	4	90	0.00	30.069 
17:35	51.4	51.4	51.4	93	49.4	1	4	90	0.00	30.069 
17:40	51.4	51.4	51.4	93	49.4	1	3	90	0.00	30.069 
17:45	51.3	51.3	51.3	93	49.3	2	6	90	0.00	30.059 
17:50	51.1	51.1	51.1	93	49.1	2	6	112	0.00	30.059 
17:55	51.1	51.1	51.1	93	49.1	1	4	90	0.00	30.059 
18:00	51.1	51.1	51.1	93	49.1	1	3	112	0.00	30.079 
18:05	51.0	51.0	51.0	93	49.0	0	3	135	0.00	30.079 
18:10	51.0	51.0	51.0	93	49.0	1	5	135	0.00	30.079 
18:15	50.8	50.8	50.8	93	48.8	1	4	112	0.00	30.072 
18:20	50.7	50.7	50.7	93	48.7	1	3	112	0.00	30.072 
18:25	50.5	50.5	50.5	93	48.6	2	5	90	0.00	30.072 
18:30	50.4	50.4	50.4	93	48.5	2	6	112	0.00	30.057 
18:35	50.4	50.4	50.4	93	48.5	2	6	112	0.00	30.057 
18:40	50.2	50.2	50.2	93	48.3	1	5	112	0.00	30.057 
18:45	50.2	50.2	50.2	93	48.3	1	3	90	0.00	30.068 
18:50	50.2	50.2	50.2	93	48.3	2	5	112	0.00	30.068 
18:55	50.2	50.2	50.2	94	48.5	2	4	90	0.00	30.068 
19:00	50.2	50.2	50.2	94	48.5	2	5	90	0.00	30.070 
19:05	50.1	50.1	50.1	94	48.4	2	4	90	0.00	30.070 
19:10	50.1	50.1	50.1	94	48.4	1	4	112	0.00	30.070 
19:15	50.1	50.1	50.1	94	48.4	2	4	112	0.00	30.071 
19:20	50.1	50.1	50.1	94	48.4	2	6	68	0.00	30.071 
19:25	50.1	50.1	50.1	94	48.4	2	5	90	0.00	30.071 
19:30	50.1	50.1	50.1	94	48.4	2	5	90	0.00	30.064 
19:35	49.9	49.9	49.9	94	48.2	2	4	90	0.00	30.064 
19:40	49.9	49.9	49.9	94	48.2	2	4	90	0.00	30.064 
19:45	49.9	49.9	49.9	94	48.2	2	5	90	0.00	30.071 
19:50	49.8	49.8	49.8	94	48.1	3	6	112	0.00	30.071 
19:55	49.8	49.8	49.8	94	48.1	3	7	90	0.00	30.071 
20:00	49.6	49.6	49.6	94	47.9	2	4	112	0.00	30.075 
20:05	49.6	49.6	49.6	94	47.9	2	5	112	0.00	30.075 
20:10	49.5	49.5	49.5	95	48.1	2	4	112	0.00	30.075 
20:15	49.4	49.4	49.4	94	47.7	3	7	112	0.00	30.071 
20:20	49.4	49.4	49.4	94	47.7	2	5	112	0.00	30.071 
20:25	49.2	49.2	49.2	95	47.8	2	5	68	0.00	30.071 
20:30	49.2	49.2	49.2	95	47.8	2	4	90	0.00	30.076 
20:35	49.1	49.1	49.1	95	47.7	2	4	68	0.00	30.076 
20:40	49.1	49.1	49.1	95	47.7	2	6	68	0.00	30.076 
20:45	49.1	49.1	49.1	95	47.7	2	4	90	0.00	30.074 
20:50	48.9	48.9	48.9	95	47.5	1	3	90	0.00	30.074 
20:55	48.9	48.9	48.9	95	47.5	2	5	90	0.00	30.074 
21:00	48.9	48.9	48.9	95	47.5	1	3	68	0.00	30.074 
21:05	48.9	48.9	48.9	95	47.5	1	3	112	0.00	30.074 
21:10	48.9	48.9	48.9	95	47.5	2	4	112	0.00	30.074 
21:15	48.9	48.9	48.9	95	47.5	2	4	112	0.00	30.079 
21:20	48.9	48.9	48.9	95	47.5	1	4	90	0.00	30.079 
21:25	48.8	48.8	48.8	95	47.4	1	3	90	0.00	30.079 
21:30	48.8	48.8	48.8	95	47.4	1	3	90	0.00	30.077 
21:35	48.8	48.8	48.8	95	47.4	2	5	112	0.00	30.077 
21:40	48.8	48.8	48.8	95	47.4	0	2	112	0.00	30.077 
21:45	48.8	48.8	48.8	95	47.4	0	1	112	0.00	30.082 
21:50	48.6	48.6	48.6	95	47.2	1	3	112	0.00	30.082 
21:55	47.9	47.9	47.9	94	46.3	2	4	270	0.00	30.082 
22:00	47.4	47.4	47.4	94	45.8	2	4	248	0.00	30.089 
22:05	47.1	47.1	47.1	94	45.5	0	3	248	0.00	30.089 
22:10	46.8	46.8	46.8	94	45.2	0	2	248	0.00	30.089 
22:15	46.5	46.5	46.5	94	44.9	0	1	248	0.00	30.087 
22:20	46.2	46.2	46.2	94	44.6	0	1	248	0.00	30.087 
22:25	46.2	46.2	46.2	94	44.6	0	0	---	0.00	30.087 
22:30	46.2	46.2	46.2	94	44.6	0	0	---	0.00	30.076 
22:35	46.2	46.2	46.2	94	44.6	0	0	---	0.00	30.076 
22:40	46.1	46.1	46.1	94	44.5	0	0	---	0.00	30.076 
22:45	46.0	46.0	46.0	94	44.4	0	0	---	0.00	30.075 
22:50	46.0	46.0	46.0	94	44.4	0	1	248	0.00	30.075 
22:55	46.0	46.0	46.0	94	44.4	0	1	248	0.00	30.075 
23:00	45.8	45.8	45.8	94	44.2	0	1	248	0.00	30.079 
23:05	45.8	45.8	45.8	94	44.2	0	0	---	0.00	30.079 
23:10	45.8	45.8	45.8	94	44.2	0	0	---	0.00	30.079 
23:15	45.8	45.8	45.8	94	44.2	0	0	---	0.00	30.078 
23:20	45.8	45.8	45.8	94	44.2	0	1	248	0.00	30.078 
23:25	45.8	45.8	45.8	94	44.2	0	1	248	0.00	30.078 
23:30	45.8	45.8	45.8	94	44.2	0	1	248	0.00	30.079 
23:35	45.8	45.8	45.8	94	44.2	0	1	248	0.00	30.079 
23:40	45.7	45.7	45.7	93	43.8	1	5	248	0.00	30.079 
23:45	45.5	45.5	45.5	93	43.6	1	3	248	0.00	30.089 
23:50	45.4	45.4	45.4	93	43.5	1	5	248	0.00	30.089 
23:55	45.2	45.2	45.2	93	43.3	0	2	248	0.00	30.089 

CoCoRaHS
IN-AL-39
A2 Web Hosting
Creative Commons License
GoDaddy
search engine by freefind advanced

loaded 2018-11-12 19:58:12 • last modified 2010-11-18 10:43:29
Privacy PolicyDisclaimer
• wx.awcolley.com is powered by PmWiki v.2002016 •
• all content (unless otherwise noted) © 2018 A W Colley